Crane, Oregon
Current Conditions -  °F | °C
As of 6:53 AM on Friday 31 Oct 2014 (Local Time) from KBNO Reporting Station
Overcast Overcast  
Wind Chill: 43°   Ceiling: 10000
Heat Index: 45°   Visibility: 10mi
Dew Point: 36°   Wind: 5mph
Humidity: 71%   Direction: 90°E
Pressure: 29.81"   Gusts: NA
Location:  43.41°N, 118.58°W
Report Text: KBNO 311353Z AUTO 09004KT 10SM OVC100 07/02 A2981 RMK AO2 SLP084 T00720022
Loading
Personal Weather Stations






























Interactive Weather Map
Tropical Storm Tracking
New forecast layout! Learn more

10-Day Weather Forecast

Advertisements
Track Severe Weather on mobile